Home > Products > Valid Products > MTR

000
SAUS41 KPHI 011601 COR
MTRACY
METAR KACY 011554Z 32013G17KT 10SM CLR 09/M07 A3009 RMK AO2 SLP191
T00941067





000
SAUS41 KPHI 011558
MTR12N
METAR K12N 011554Z AUTO 36006KT 04/M07 A3009 RMK AO1 SLP199
T00391067





000
SAUS41 KPHI 011558
MTR12N
METAR K12N 011554Z AUTO 36006KT 04/M07 A3009 RMK AO1 SLP199
T00391067





000
SAUS41 KPHI 011502 COR
MTRACY
METAR KACY 011454Z 35011G20KT 10SM CLR 08/M06 A3010 RMK AO2 SLP192
T00781061 51018





000
SAUS41 KPHI 011458
MTR12N
METAR K12N 011454Z AUTO 00000KT 03/M07 A3008 RMK AO1 SLP197
T00281072 51019





000
SAUS41 KPHI 011458
MTR12N
METAR K12N 011454Z AUTO 00000KT 03/M07 A3008 RMK AO1 SLP197
T00281072 51019





000
SAUS41 KPHI 011401 COR
MTRACY
METAR KACY 011354Z 35011KT 10SM CLR 06/M07 A3009 RMK AO2 SLP189
T00561067





000
SAUS41 KPHI 011401 COR
MTRACY
METAR KACY 011354Z 35011KT 10SM CLR 06/M07 A3009 RMK AO2 SLP189
T00561067





000
SAUS41 KPHI 011358
MTR12N
METAR K12N 011354Z AUTO 36003KT 02/M06 A3006 RMK AO1 SLP191
T00171061





000
SAUS41 KPHI 011303 COR
MTRACY
METAR KACY 011254Z 35012KT 10SM CLR 03/M06 A3006 RMK AO2 SLP181
T00331056





000
SAUS41 KPHI 011303 COR
MTRACY
METAR KACY 011254Z 35012KT 10SM CLR 03/M06 A3006 RMK AO2 SLP181
T00331056





000
SAUS41 KPHI 011258
MTR12N
METAR K12N 011254Z AUTO VRB03KT 00/M04 A3005 RMK AO1 SLP184
T00001044





000
SAUS41 KPHI 011258
MTR12N
METAR K12N 011254Z AUTO VRB03KT 00/M04 A3005 RMK AO1 SLP184
T00001044





000
SAUS41 KPHI 011205 COR
MTR12N
METAR K12N 011154Z AUTO 00000KT M04/M05 A3002 RMK AO1 SLP179 70032
T10441050 11011 21061 53034





000
SAUS41 KPHI 011205 COR
MTR12N
METAR K12N 011154Z AUTO 00000KT M04/M05 A3002 RMK AO1 SLP179 70032
T10441050 11011 21061 53034





000
SAUS41 KPHI 011158
MTRACY
METAR KACY 011154Z 32007KT 10SM CLR 01/M04 A3004 RMK AO2 SLP174
7//// T00111039 10022 21011 53045 $





000
SAUS41 KPHI 011158
MTRACY
METAR KACY 011154Z 32007KT 10SM CLR 01/M04 A3004 RMK AO2 SLP174
7//// T00111039 10022 21011 53045 $





000
SAUS41 KPHI 011100 COR
MTR12N
METAR K12N 011054Z AUTO 21003KT M06/M07 A2998 RMK AO1 SLP164
T10561067





000
SAUS41 KPHI 011100 COR
MTR12N
METAR K12N 011054Z AUTO 21003KT M06/M07 A2998 RMK AO1 SLP164
T10561067





000
SAUS41 KPHI 011059 COR
MTRACY
METAR KACY 011054Z 29006KT 10SM CLR M01/M04 A3000 RMK AO2 SLP159
T10111039 $





000
SAUS41 KPHI 011000 COR
MTR12N
METAR K12N 010954Z AUTO 00000KT M06/M07 A2995 RMK AO1 SLP153
T10561067





000
SAUS41 KPHI 010959 COR
MTRACY
METAR KACY 010954Z 32007KT 10SM CLR M01/M03 A2995 RMK AO2 SLP143
T10061028 $





000
SAUS41 KPHI 010959 COR
MTRACY
METAR KACY 010954Z 32007KT 10SM CLR M01/M03 A2995 RMK AO2 SLP143
T10061028 $





000
SAUS41 KPHI 010900 COR
MTR12N
METAR K12N 010854Z AUTO 01003KT M03/M06 A2992 RMK AO1 SLP143
T10331056 53018





000
SAUS41 KPHI 010900 COR
MTR12N
METAR K12N 010854Z AUTO 01003KT M03/M06 A2992 RMK AO1 SLP143
T10331056 53018





000
SAUS41 KPHI 010859 COR
MTRACY
METAR KACY 010854Z 33009KT 10SM CLR 01/M02 A2991 RMK AO2 SLP128
T00061022 51017 $





000
SAUS41 KPHI 010859 COR
MTRACY
METAR KACY 010854Z 33009KT 10SM CLR 01/M02 A2991 RMK AO2 SLP128
T00061022 51017 $





000
SAUS41 KPHI 010800 COR
MTR12N
METAR K12N 010754Z AUTO 33003KT M05/M06 A2991 RMK AO1 SLP139
T10501056





000
SAUS41 KPHI 010759 COR
MTRACY
METAR KACY 010754Z 33011KT 10SM CLR 01/M02 A2989 RMK AO2 SLP124
T00111017 $





000
SAUS41 KPHI 010700 COR
MTR12N
METAR K12N 010654Z AUTO 00000KT M02/M04 A2988 RMK AO1 SLP129
T10221039





000
SAUS41 KPHI 010700 COR
MTR12N
METAR K12N 010654Z AUTO 00000KT M02/M04 A2988 RMK AO1 SLP129
T10221039





000
SAUS41 KPHI 010659 COR
MTRACY
METAR KACY 010654Z 31009KT 10SM CLR 01/M01 A2988 RMK AO2 SLP119
T00111006 $





000
SAUS41 KPHI 010601 COR
MTR12N
METAR K12N 010554Z AUTO 00000KT M03/M03 A2987 RMK AO1 SLP125
T10281033 10006 21028 53016





000
SAUS41 KPHI 010601 COR
MTR12N
METAR K12N 010554Z AUTO 00000KT M03/M03 A2987 RMK AO1 SLP125
T10281033 10006 21028 53016





000
SAUS41 KPHI 010559 COR
MTRACY
METAR KACY 010554Z 32010KT 10SM CLR 02/01 A2986 RMK AO2 SLP111 60014
T00220006 10111 20022 $





000
SAUS41 KPHI 010505
MTRACY
SPECI KACY 010503Z 34012KT 10SM SCT009 OVC022 03/01 A2984 RMK AO2
T00280011 $





000
SAUS41 KPHI 010505
MTRACY
SPECI KACY 010503Z 34012KT 10SM SCT009 OVC022 03/01 A2984 RMK AO2
T00280011 $





000
SAUS41 KPHI 010500 COR
MTR12N
METAR K12N 010454Z AUTO 00000KT M02/M02 A2985 RMK AO1 SLP118
T10221022 400561022





000
SAUS41 KPHI 010459 COR
MTRACY
METAR KACY 010454Z 34013KT 10SM BKN009 OVC022 03/02 A2983 RMK AO2
CIG 007V012 SLP102 T00330017 401390000 $





000
SAUS41 KPHI 010400 COR
MTR12N
METAR K12N 010354Z AUTO 00000KT M01/M02 A2983 RMK AO1 SLP111
T10061017





000
SAUS41 KPHI 010400 COR
MTR12N
METAR K12N 010354Z AUTO 00000KT M01/M02 A2983 RMK AO1 SLP111
T10061017





000
SAUS41 KPHI 010359 COR
MTRACY
METAR KACY 010354Z 35011KT 5SM BR OVC006 03/02 A2981 RMK AO2 SLP096
T00330022 $





000
SAUS41 KPHI 010359 COR
MTRACY
METAR KACY 010354Z 35011KT 5SM BR OVC006 03/02 A2981 RMK AO2 SLP096
T00330022 $





000
SAUS41 KPHI 010306
MTRACY
SPECI KACY 010305Z 35009KT 6SM BR OVC006 03/02 A2980 RMK AO2
T00330022 $





000
SAUS41 KPHI 010300 COR
MTR12N
METAR K12N 010254Z AUTO 00000KT M01/M01 A2982 RMK AO1 SLP107
T10061006 51017





000
SAUS41 KPHI 010259 COR
MTRACY
METAR KACY 010254Z 34008KT 6SM BR 03/02 A2979 RMK AO2 RAB0100B0111
SLP089 P0001 60014 T00330022 $





000
SAUS41 KPHI 010234 COR
MTRACY
SPECI KACY 010229Z AUTO 02007KT 7SM FEW008 03/02 A2976 RMK AO2
RAB0100B0111 P0001 T00280017 TSNO $





000
SAUS41 KPHI 010234 COR
MTRACY
SPECI KACY 010229Z AUTO 02007KT 7SM FEW008 03/02 A2976 RMK AO2
RAB0100B0111 P0001 T00280017 TSNO $





000
SAUS41 KPHI 010200 COR
MTR12N
METAR K12N 010154Z AUTO 36005KT 01/M01 A2980 RMK AO1 SLP100
T00061006





000
SAUS41 KPHI 010100 COR
MTR12N
METAR K12N 010054Z AUTO 01003KT 01/00 A2979 RMK AO1 SLP096 T00060000





000
SAUS41 KPHI 010000 COR
MTR12N
METAR K12N 312354Z AUTO 00000KT 01/00 A2977 RMK AO1 SLP091 P0002
60030 T00060000 10011 20000 53006





000
SAUS41 KPHI 010000 COR
MTR12N
METAR K12N 312354Z AUTO 00000KT 01/00 A2977 RMK AO1 SLP091 P0002
60030 T00060000 10011 20000 53006





000
SAUS41 KPHI 312359 COR
MTRACY
METAR KACY 312354Z 08005KT 10SM -RA OVC049 08/06 A2968 RMK AO2
RAB2257 SLP050 P0004 60004 T00780056 10133 20078 50004





000
SAUS41 KPHI 312359 COR
MTRACY
METAR KACY 312354Z 08005KT 10SM -RA OVC049 08/06 A2968 RMK AO2
RAB2257 SLP050 P0004 60004 T00780056 10133 20078 50004





000
SAUS41 KPHI 312300 COR
MTR12N
METAR K12N 312254Z AUTO 00000KT 01/00 A2975 RMK AO1 SLP087 P0005
T00060000





000
SAUS41 KPHI 312300 COR
MTR12N
METAR K12N 312254Z AUTO 00000KT 01/00 A2975 RMK AO1 SLP087 P0005
T00060000





000
SAUS41 KPHI 312259 COR
MTRACY
METAR KACY 312254Z 22006KT 10SM BKN060 OVC085 12/01 A2968 RMK AO2
SLP050 T01170011





000
SAUS41 KPHI 312201 COR
MTR12N
METAR K12N 312154Z AUTO 00000KT 01/00 A2975 RMK AO1 SLP084 P0009
T00060000





000
SAUS41 KPHI 312159 COR
MTRACY
METAR KACY 312154Z 18010KT 10SM BKN075 OVC090 12/01 A2967 RMK AO2
SLP045 T01170006





000
SAUS41 KPHI 312059 COR
MTRACY
METAR KACY 312054Z 19011KT 10SM BKN100 12/M01 A2966 RMK AO2 SLP045
T01171006 56029





000
SAUS41 KPHI 312059 COR
MTRACY
METAR KACY 312054Z 19011KT 10SM BKN100 12/M01 A2966 RMK AO2 SLP045
T01171006 56029





000
SAUS41 KPHI 312058
MTR12N
METAR K12N 312054Z AUTO 00000KT 01/00 A2975 RMK AO1 SLP083 P0003
60014 T00060000 55010





000
SAUS41 KPHI 312058
MTR12N
METAR K12N 312054Z AUTO 00000KT 01/00 A2975 RMK AO1 SLP083 P0003
60014 T00060000 55010





000
SAUS41 KPHI 312000 COR
MTR12N
METAR K12N 311954Z AUTO 04005KT 01/00 A2975 RMK AO1 SLP083 P0005
T00060000





000
SAUS41 KPHI 311959 COR
MTRACY
METAR KACY 311954Z 17011KT 10SM OVC100 11/M01 A2967 RMK AO2 SLP045
T01111011





000
SAUS41 KPHI 311900 COR
MTR12N
METAR K12N 311854Z AUTO 00000KT 01/00 A2976 RMK AO1 SLP086 P0006
T00060000





000
SAUS41 KPHI 311900 COR
MTR12N
METAR K12N 311854Z AUTO 00000KT 01/00 A2976 RMK AO1 SLP086 P0006
T00060000





000
SAUS41 KPHI 311859 COR
MTRACY
METAR KACY 311854Z 17011G17KT 10SM SCT100 12/M02 A2969 RMK AO2
SLP055 T01221022





000
SAUS41 KPHI 311859 COR
MTRACY
METAR KACY 311854Z 17011G17KT 10SM SCT100 12/M02 A2969 RMK AO2
SLP055 T01221022





000
SAUS41 KPHI 311800 COR
MTR12N
METAR K12N 311754Z AUTO 00000KT 01/01 A2978 RMK AO1 SLP093 P0002
60002 T00110006 10056 20000 56024





000
SAUS41 KPHI 311759 COR
MTRACY
METAR KACY 311754Z 14013KT 10SM CLR 12/M02 A2975 RMK AO2 SLP073
6//// T01171017 10133 20011





000
SAUS41 KPHI 311701 COR
MTR12N
METAR K12N 311654Z AUTO 21005KT 03/M02 A2979 RMK AO1 SLP097
T00331022





000
SAUS41 KPHI 311659 COR
MTRACY
METAR KACY 311654Z AUTO 16012KT 10SM CLR 13/M02 A2980 RMK AO2 SLP091
T01281017 TSNO





000
SAUS41 KPHI 311600 COR
MTR12N
METAR K12N 311554Z AUTO 22007KT 04/M05 A2981 RMK AO1 SLP103
T00441050





000
SAUS41 KPHI 311500 COR
MTR12N
METAR K12N 311454Z AUTO 21006KT 04/M05 A2985 RMK AO1 SLP116
T00441050 56009





000
SAUS41 KPHI 311500 COR
MTR12N
METAR K12N 311454Z AUTO 21006KT 04/M05 A2985 RMK AO1 SLP116
T00441050 56009





000
SAUS41 KPHI 311459 COR
MTRACY
METAR KACY 311454Z 28008KT 10SM SCT080 OVC090 11/M05 A2990 RMK AO2
SLP124 T01061050 58009





000
SAUS41 KPHI 311459 COR
MTRACY
METAR KACY 311454Z 28008KT 10SM SCT080 OVC090 11/M05 A2990 RMK AO2
SLP124 T01061050 58009





000
SAUS41 KPHI 311400 COR
MTR12N
METAR K12N 311354Z AUTO VRB04KT 04/M05 A2987 RMK AO1 SLP121
T00441050





000
SAUS41 KPHI 311400 COR
MTR12N
METAR K12N 311354Z AUTO VRB04KT 04/M05 A2987 RMK AO1 SLP121
T00441050





000
SAUS41 KPHI 311300 COR
MTR12N
METAR K12N 311254Z AUTO VRB03KT 03/M05 A2986 RMK AO1 SLP120
T00281050





000
SAUS41 KPHI 311300 COR
MTR12N
METAR K12N 311254Z AUTO VRB03KT 03/M05 A2986 RMK AO1 SLP120
T00281050





000
SAUS41 KPHI 311200 COR
MTR12N
METAR K12N 311154Z AUTO 00000KT M01/M03 A2988 RMK AO1 SLP127 70001
T10061028 10028 21022 51015





000
SAUS41 KPHI 311200 COR
MTR12N
METAR K12N 311154Z AUTO 00000KT M01/M03 A2988 RMK AO1 SLP127 70001
T10061028 10028 21022 51015





000
SAUS41 KPHI 311100 COR
MTR12N
METAR K12N 311054Z AUTO 00000KT M02/M04 A2987 RMK AO1 SLP123
T10221044





000
SAUS41 KPHI 311000 COR
MTR12N
METAR K12N 310954Z AUTO 00000KT 02/M05 A2986 RMK AO1 SLP116
T00171050





000
SAUS41 KPHI 311000 COR
MTR12N
METAR K12N 310954Z AUTO 00000KT 02/M05 A2986 RMK AO1 SLP116
T00171050





000
SAUS41 KPHI 310900 COR
MTR12N
METAR K12N 310854Z AUTO 34008KT 02/M05 A2984 RMK AO1 SLP110
T00221050 55003





000
SAUS41 KPHI 310800 COR
MTR12N
METAR K12N 310754Z AUTO 00000KT 00/M02 A2984 RMK AO1 SLP110
T00001017





000
SAUS41 KPHI 310700 COR
MTR12N
METAR K12N 310654Z AUTO 00000KT 02/M01 A2983 RMK AO1 SLP109
T00221006





000
SAUS41 KPHI 310700 COR
MTR12N
METAR K12N 310654Z AUTO 00000KT 02/M01 A2983 RMK AO1 SLP109
T00221006





000
SAUS41 KPHI 310600 COR
MTR12N
METAR K12N 310554Z AUTO 00000KT 02/00 A2985 RMK AO1 SLP113 60001
T00170000 10078 20017 58006





000
SAUS41 KPHI 310600 COR
MTR12N
METAR K12N 310554Z AUTO 00000KT 02/00 A2985 RMK AO1 SLP113 60001
T00170000 10078 20017 58006





000
SAUS41 KPHI 310500 COR
MTR12N
METAR K12N 310454Z AUTO VRB03KT 03/01 A2985 RMK AO1 SLP115 T00330011
401001011





000
SAUS41 KPHI 310500 COR
MTR12N
METAR K12N 310454Z AUTO VRB03KT 03/01 A2985 RMK AO1 SLP115 T00330011
401001011





000
SAUS41 KPHI 310400 COR
MTR12N
METAR K12N 310354Z AUTO 00000KT 03/01 A2987 RMK AO1 SLP122 T00330011





000
SAUS41 KPHI 310300 COR
MTR12N
METAR K12N 310254Z AUTO 00000KT 04/01 A2987 RMK AO1 SLP121 P0001
60001 T00440006 50026





000
SAUS41 KPHI 310200 COR
MTR12N
METAR K12N 310154Z AUTO VRB06KT 05/M01 A2987 RMK AO1 SLP123
T00501006





000
SAUS41 KPHI 310200 COR
MTR12N
METAR K12N 310154Z AUTO VRB06KT 05/M01 A2987 RMK AO1 SLP123
T00501006





000
SAUS41 KPHI 310100 COR
MTR12N
METAR K12N 310054Z AUTO VRB06G16KT 06/M01 A2986 RMK AO1 PK WND
36026/0029 SLP120 T00561011





000
SAUS41 KPHI 310100 COR
MTR12N
METAR K12N 310054Z AUTO VRB06G16KT 06/M01 A2986 RMK AO1 PK WND
36026/0029 SLP120 T00561011





000
SAUS41 KPHI 310000 COR
MTR12N
METAR K12N 302354Z AUTO 00000KT 06/M04 A2979 RMK AO1 SLP095
T00561044 10100 20056 52005





000
SAUS41 KPHI 310000 COR
MTR12N
METAR K12N 302354Z AUTO 00000KT 06/M04 A2979 RMK AO1 SLP095
T00561044 10100 20056 52005





000
SAUS41 KPHI 302300 COR
MTR12N
METAR K12N 302254Z AUTO 09/M06 A2979 RMK AO1 SLP093 T00941056





000
SAUS41 KPHI 302300 COR
MTR12N
METAR K12N 302254Z AUTO 09/M06 A2979 RMK AO1 SLP093 T00941056





000
SAUS41 KPHI 302201 COR
MTR12N
METAR K12N 302154Z AUTO 09/M06 A2977 RMK AO1 SLP089 T00941056





000
SAUS41 KPHI 302100 COR
MTR12N
METAR K12N 302054Z AUTO VRB05KT 09/M03 A2977 RMK AO1 SLP088
T00891033 58002





000
SAUS41 KPHI 302000 COR
MTR12N
METAR K12N 301954Z AUTO 28008G17KT 230V330 08/M03 A2978 RMK AO1
SLP089 T00831028





000
SAUS41 KPHI 301900 COR
MTR12N
METAR K12N 301854Z AUTO VRB06G22KT 08/M03 A2978 RMK AO1 SLP092
T00831033





000
SAUS41 KPHI 301800 COR
MTR12N
METAR K12N 301754Z AUTO VRB03G16KT 08/M02 A2978 RMK AO1 SLP089
T00781017 10089 20006 56015





000
SAUS41 KPHI 301800 COR
MTR12N
METAR K12N 301754Z AUTO VRB03G16KT 08/M02 A2978 RMK AO1 SLP089
T00781017 10089 20006 56015





000
SAUS41 KPHI 301700 COR
MTR12N
METAR K12N 301654Z AUTO VRB05G15KT 08/M01 A2979 RMK AO1 SLP094
T00781011





000
SAUS41 KPHI 301700 COR
MTR12N
METAR K12N 301654Z AUTO VRB05G15KT 08/M01 A2979 RMK AO1 SLP094
T00781011





000
SAUS41 KPHI 301600 COR
MTR12N
METAR K12N 301554Z AUTO 21009G16KT 07/M02 A2980 RMK AO1 SLP098
T00671017





000
SAUS41 KPHI 301600 COR
MTR12N
METAR K12N 301554Z AUTO 21009G16KT 07/M02 A2980 RMK AO1 SLP098
T00671017





000
SAUS41 KPHI 301500 COR
MTR12N
METAR K12N 301454Z AUTO 21007G15KT 160V240 04/M02 A2982 RMK AO1
SLP107 T00391017 58014





000
SAUS41 KPHI 301400 COR
MTR12N
METAR K12N 301354Z AUTO 21006KT 02/M02 A2985 RMK AO1 SLP117
T00221022





000
SAUS41 KPHI 301300 COR
MTR12N
METAR K12N 301254Z AUTO 21008KT 02/M03 A2985 RMK AO1 SLP117
T00171028





000
SAUS41 KPHI 301200 COR
MTR12N
METAR K12N 301154Z AUTO 22003KT 01/M03 A2986 RMK AO1 SLP121 60003
70003 T00061028 10017 21011 56027





000
SAUS41 KPHI 301200 COR
MTR12N
METAR K12N 301154Z AUTO 22003KT 01/M03 A2986 RMK AO1 SLP121 60003
70003 T00061028 10017 21011 56027





000
SAUS41 KPHI 301100 COR
MTR12N
METAR K12N 301054Z AUTO 00000KT M01/M02 A2989 RMK AO1 SLP128
T10061022





000
SAUS41 KPHI 301000 COR
MTR12N
METAR K12N 300954Z AUTO 19003KT M01/M02 A2991 RMK AO1 SLP136 P0002
T10111022





000
SAUS41 KPHI 300900 COR
MTR12N
METAR K12N 300854Z AUTO VRB03KT M01/M02 A2994 RMK AO1 SLP148 P0001
60001 T10061022 58027





000
SAUS41 KPHI 300900 COR
MTR12N
METAR K12N 300854Z AUTO VRB03KT M01/M02 A2994 RMK AO1 SLP148 P0001
60001 T10061022 58027





000
SAUS41 KPHI 300800 COR
MTR12N
METAR K12N 300754Z AUTO 20007KT 02/M11 A2997 RMK AO1 SLP156
T00171106





000
SAUS41 KPHI 300700 COR
MTR12N
METAR K12N 300654Z AUTO VRB05KT 02/M12 A3000 RMK AO1 SLP166
T00171117





000
SAUS41 KPHI 300700 COR
MTR12N
METAR K12N 300654Z AUTO VRB05KT 02/M12 A3000 RMK AO1 SLP166
T00171117





000
SAUS41 KPHI 300600 COR
MTR12N
METAR K12N 300554Z AUTO 19005KT 02/M12 A3003 RMK AO1 SLP176
T00171117 10028 21017 58023





000
SAUS41 KPHI 300600 COR
MTR12N
METAR K12N 300554Z AUTO 19005KT 02/M12 A3003 RMK AO1 SLP176
T00171117 10028 21017 58023





000
SAUS41 KPHI 300500 COR
MTR12N
METAR K12N 300454Z AUTO 00000KT 01/M12 A3006 RMK AO1 SLP190
T00111117 400721067





000
SAUS41 KPHI 300500 COR
MTR12N
METAR K12N 300454Z AUTO 00000KT 01/M12 A3006 RMK AO1 SLP190
T00111117 400721067





000
SAUS41 KPHI 300400 COR
MTR12N
METAR K12N 300354Z AUTO 20003KT 01/M09 A3008 RMK AO1 SLP195
T00061089





000
SAUS41 KPHI 300300 COR
MTR12N
METAR K12N 300254Z AUTO 21003KT M01/M08 A3009 RMK AO1 SLP202
T10111083 58002





000
SAUS41 KPHI 300200 COR
MTR12N
METAR K12N 300154Z AUTO 19003KT 00/M08 A3011 RMK AO1 SLP208
T00001083





000
SAUS41 KPHI 300200 COR
MTR12N
METAR K12N 300154Z AUTO 19003KT 00/M08 A3011 RMK AO1 SLP208
T00001083





000
SAUS41 KPHI 300100 COR
MTR12N
METAR K12N 300054Z AUTO 22003KT M01/M09 A3011 RMK AO1 SLP208
T10061089





000
SAUS41 KPHI 300100 COR
MTR12N
METAR K12N 300054Z AUTO 22003KT M01/M09 A3011 RMK AO1 SLP208
T10061089





000
SAUS41 KPHI 300000 COR
MTR12N
METAR K12N 292354Z AUTO 00000KT 03/M11 A3010 RMK AO1 SLP205
T00281106 10072 20022 58014





000
SAUS41 KPHI 300000 COR
MTR12N
METAR K12N 292354Z AUTO 00000KT 03/M11 A3010 RMK AO1 SLP205
T00281106 10072 20022 58014





000
SAUS41 KPHI 292300 COR
MTR12N
METAR K12N 292254Z AUTO VRB05KT 06/M17 A3013 RMK AO1 SLP214
T00561172





000
SAUS41 KPHI 292300 COR
MTR12N
METAR K12N 292254Z AUTO VRB05KT 06/M17 A3013 RMK AO1 SLP214
T00561172





000
SAUS41 KPHI 292200 COR
MTR12N
METAR K12N 292154Z AUTO 23004KT 07/M17 A3014 RMK AO1 SLP219
T00671167





000
SAUS41 KPHI 292100 COR
MTR12N
METAR K12N 292054Z AUTO 29004KT 07/M16 A3014 RMK AO1 SLP218
T00671161 56024





000
SAUS41 KPHI 292000 COR
MTR12N
METAR K12N 291954Z AUTO 32007KT 06/M15 A3016 RMK AO1 SLP223
T00611150





000
SAUS41 KPHI 291900 COR
MTR12N
METAR K12N 291854Z AUTO 06/M14 A3018 RMK AO1 SLP232 T00561144





000
SAUS41 KPHI 291800 COR
MTR12N
METAR K12N 291754Z AUTO VRB06KT 04/M14 A3022 RMK AO1 SLP243
T00441144 10044 21050 58022





000
SAUS41 KPHI 291800 COR
MTR12N
METAR K12N 291754Z AUTO VRB06KT 04/M14 A3022 RMK AO1 SLP243
T00441144 10044 21050 58022





000
SAUS41 KPHI 291700 COR
MTR12N
METAR K12N 291654Z AUTO VRB05KT 03/M14 A3025 RMK AO1 SLP254
T00331144





000
SAUS41 KPHI 291700 COR
MTR12N
METAR K12N 291654Z AUTO VRB05KT 03/M14 A3025 RMK AO1 SLP254
T00331144





    US Dept of Commerce
    National Oceanic and Atmospheric Administration
    National Weather Service
    1325 East West Highway
    Silver Spring, MD 20910
    Page Author: NWS Internet Services Team
Disclaimer
Information Quality
Credits
Glossary
Privacy Policy
Freedom of Information Act (FOIA)
About Us
Career Opportunities